Time;durP1;ratioP1;P1;durP2;ratioP2;P2;SDS_P1;SDS_P2;PMS_P1;PMS_P2;Temp;Humidity;BMP_temperature;BMP_pressure;BME280_temperature;BME280_humidity;BME280_pressure;Samples;Min_cycle;Max_cycle;Signal;HPM_P1;HPM_P2
2023/01/03 00:00:52;;;;;;;86.38;65.85;;;9.40;99.90;;;;;;5054171;28;20095;-44
2023/01/03 00:03:18;;;;;;;92.93;67.15;;;9.40;99.90;;;;;;5053583;28;20078;-45
2023/01/03 00:05:45;;;;;;;101.15;76.93;;;9.50;99.90;;;;;;5054493;28;20043;-45
2023/01/03 00:08:12;;;;;;;106.35;82.65;;;9.50;99.90;;;;;;5054494;28;20029;-44
2023/01/03 00:10:38;;;;;;;105.43;82.00;;;;;;;;;;5054158;28;20035;-45
2023/01/03 00:13:04;;;;;;;112.32;86.60;;;;;;;;;;5054062;28;20033;-45
2023/01/03 00:15:34;;;;;;;114.85;88.00;;;;;;;;;;5053870;28;20021;-45
2023/01/03 00:18:00;;;;;;;108.20;82.80;;;;;;;;;;5054172;28;20049;-45
2023/01/03 00:20:26;;;;;;;102.55;79.93;;;;;;;;;;5052791;28;20029;-45
2023/01/03 00:22:52;;;;;;;104.68;81.03;;;;;;;;;;5035525;28;20029;-45
2023/01/03 00:25:18;;;;;;;112.35;82.03;;;9.70;99.90;;;;;;5054083;28;20167;-45
2023/01/03 00:27:43;;;;;;;113.07;86.88;;;9.60;99.90;;;;;;5054025;28;20107;-45
2023/01/03 00:30:10;;;;;;;113.93;87.97;;;9.60;99.90;;;;;;5053958;28;20036;-45
2023/01/03 00:32:35;;;;;;;119.90;88.47;;;9.70;99.90;;;;;;5016374;28;20548;-45
2023/01/03 00:35:01;;;;;;;116.40;87.70;;;9.70;99.90;;;;;;5054028;28;20067;-45
2023/01/03 00:37:27;;;;;;;114.82;83.97;;;9.70;99.90;;;;;;5035031;28;20037;-45
2023/01/03 00:39:52;;;;;;;117.32;86.15;;;9.80;99.90;;;;;;5018265;28;20048;-46
2023/01/03 00:42:18;;;;;;;105.40;82.57;;;9.80;99.90;;;;;;5053836;28;20067;-45
2023/01/03 00:44:44;;;;;;;103.85;81.03;;;9.80;99.90;;;;;;5053356;28;20043;-45
2023/01/03 00:47:10;;;;;;;107.65;79.32;;;9.70;99.90;;;;;;5053486;28;20040;-45
2023/01/03 00:49:35;;;;;;;107.90;81.32;;;9.80;99.90;;;;;;5051442;28;20052;-45
2023/01/03 00:52:01;;;;;;;102.47;74.20;;;9.80;99.90;;;;;;5052977;28;20041;-44
2023/01/03 00:54:27;;;;;;;93.07;72.22;;;9.80;99.90;;;;;;5053359;28;20517;-45
2023/01/03 00:56:53;;;;;;;95.45;73.05;;;9.80;99.90;;;;;;5052484;28;20021;-45
2023/01/03 00:59:20;;;;;;;96.50;72.80;;;9.80;99.90;;;;;;5051357;28;20447;-45
2023/01/03 01:01:48;;;;;;;94.68;70.93;;;9.80;99.90;;;;;;5053011;28;20028;-45
2023/01/03 01:04:26;;;;;;;98.78;72.68;;;9.80;99.90;;;;;;5053184;28;20025;-45
2023/01/03 01:06:55;;;;;;;87.32;64.40;;;9.80;99.90;;;;;;5034467;28;20099;-48
2023/01/03 01:09:29;;;;;;;76.28;56.45;;;9.80;99.90;;;;;;5053533;28;20053;-45
2023/01/03 01:11:55;;;;;;;77.47;57.53;;;9.80;99.90;;;;;;5053312;28;20372;-44
2023/01/03 01:14:24;;;;;;;78.90;55.33;;;9.90;99.90;;;;;;5034471;28;20127;-44
2023/01/03 01:16:53;;;;;;;75.53;54.38;;;9.90;99.90;;;;;;5033740;28;20087;-44
2023/01/03 01:19:21;;;;;;;81.68;58.15;;;10.00;99.90;;;;;;5034393;28;20044;-44
2023/01/03 01:21:47;;;;;;;73.05;51.60;;;10.00;99.90;;;;;;5052885;28;20056;-44
2023/01/03 01:24:14;;;;;;;61.42;45.83;;;10.10;99.90;;;;;;5034337;28;20564;-44
2023/01/03 01:26:40;;;;;;;57.17;42.88;;;10.10;99.90;;;;;;5034170;28;20041;-44
2023/01/03 01:29:06;;;;;;;63.03;44.83;;;10.10;99.90;;;;;;5050809;28;20039;-45
2023/01/03 01:31:32;;;;;;;60.22;43.25;;;10.10;99.90;;;;;;5052706;28;20072;-45
2023/01/03 01:33:58;;;;;;;53.55;41.28;;;10.20;99.90;;;;;;5052915;28;20032;-45
2023/01/03 01:36:27;;;;;;;51.38;39.10;;;10.20;99.90;;;;;;5053100;28;20029;-44
2023/01/03 01:38:56;;;;;;;57.95;41.20;;;10.30;99.90;;;;;;5053010;28;20033;-44
2023/01/03 01:44:53;;;;;;;47.38;36.42;;;10.30;99.90;;;;;;5053448;28;20051;-44
2023/01/03 01:47:31;;;;;;;54.75;39.38;;;10.40;99.90;;;;;;5049511;28;20045;-45
2023/01/03 01:50:08;;;;;;;51.70;38.03;;;10.40;99.90;;;;;;5052434;28;20140;-45
2023/01/03 01:52:37;;;;;;;53.25;40.85;;;10.40;99.90;;;;;;5052621;28;20531;-44
2023/01/03 01:55:06;;;;;;;50.78;38.42;;;10.50;99.90;;;;;;5052830;28;20028;-44
2023/01/03 01:57:36;;;;;;;48.15;36.08;;;10.50;99.90;;;;;;5052420;28;20040;-44
2023/01/03 02:00:04;;;;;;;48.17;36.33;;;10.50;99.90;;;;;;5052846;28;20530;-45
2023/01/03 02:02:29;;;;;;;44.28;34.80;;;10.60;99.90;;;;;;5052818;28;20029;-45
2023/01/03 02:04:56;;;;;;;45.63;35.08;;;10.60;99.90;;;;;;5052401;28;20488;-44
2023/01/03 02:07:22;;;;;;;55.03;39.90;;;10.70;99.90;;;;;;5052368;28;20021;-44
2023/01/03 02:09:53;;;;;;;48.05;37.83;;;10.70;99.90;;;;;;5052335;28;20040;-44
2023/01/03 02:15:42;;;;;;;43.25;33.55;;;10.70;99.90;;;;;;5052395;28;20495;-44
2023/01/03 02:18:26;;;;;;;47.50;35.22;;;10.70;99.90;;;;;;5052580;28;20032;-45
2023/01/03 02:21:00;;;;;;;47.30;36.55;;;10.70;99.90;;;;;;5050322;28;20056;-45
2023/01/03 02:24:04;;;;;;;54.20;38.35;;;10.70;99.90;;;;;;5052531;28;20025;-44
2023/01/03 02:26:59;;;;;;;43.13;31.85;;;10.70;99.90;;;;;;5052610;28;20045;-44
2023/01/03 02:29:34;;;;;;;42.55;31.60;;;10.70;99.90;;;;;;5056341;28;20110;-44
2023/01/03 02:32:35;;;;;;;39.88;30.45;;;10.70;99.90;;;;;;5055804;28;20028;-44
2023/01/03 02:35:17;;;;;;;41.63;31.17;;;10.60;99.90;;;;;;5033592;28;20030;-45
2023/01/03 02:38:01;;;;;;;37.10;29.15;;;10.60;99.90;;;;;;5033930;28;20030;-45
2023/01/03 02:40:41;;;;;;;38.60;27.95;;;10.60;99.90;;;;;;5033533;28;20036;-43
2023/01/03 02:43:11;;;;;;;35.33;26.80;;;10.60;99.90;;;;;;5033601;28;20060;-44
2023/01/03 02:45:54;;;;;;;37.45;26.65;;;10.60;99.90;;;;;;5033634;28;20088;-44
2023/01/03 02:48:29;;;;;;;32.53;25.25;;;10.60;99.90;;;;;;5000722;28;20488;-44
2023/01/03 02:50:57;;;;;;;43.70;29.63;;;10.70;99.90;;;;;;5033449;28;20413;-44
2023/01/03 02:53:33;;;;;;;38.03;28.35;;;10.70;99.90;;;;;;5033466;28;20049;-44
2023/01/03 02:56:07;;;;;;;35.88;25.20;;;10.70;99.90;;;;;;5032798;28;20033;-44
2023/01/03 02:58:36;;;;;;;34.95;25.83;;;10.80;99.90;;;;;;5016760;28;20049;-44
2023/01/03 03:01:03;;;;;;;37.58;27.10;;;10.80;99.90;;;;;;5033204;28;20040;-44
2023/01/03 03:03:35;;;;;;;37.30;26.90;;;10.80;99.90;;;;;;5016854;28;20044;-44
2023/01/03 03:06:32;;;;;;;36.30;25.17;;;10.90;99.90;;;;;;5032869;28;20045;-44
2023/01/03 03:08:58;;;;;;;35.50;26.08;;;10.80;99.90;;;;;;5033127;28;20400;-46
2023/01/03 03:14:22;;;;;;;37.03;26.45;;;10.80;99.90;;;;;;5055335;28;20095;-45
2023/01/03 03:16:51;;;;;;;33.22;25.00;;;10.80;99.90;;;;;;5053304;28;20061;-45
2023/01/03 03:25:34;;;;;;;34.50;22.85;;;10.80;99.90;;;;;;5055056;28;20044;-45
2023/01/03 03:30:58;;;;;;;29.45;22.70;;;10.70;99.90;;;;;;5055540;28;20380;-45
2023/01/03 03:33:27;;;;;;;30.63;22.98;;;10.60;99.90;;;;;;5055263;28;20064;-45
2023/01/03 03:35:58;;;;;;;31.85;21.95;;;10.60;99.90;;;;;;5054977;28;20428;-45
2023/01/03 03:38:30;;;;;;;28.92;20.70;;;10.70;99.90;;;;;;5053949;28;20021;-45
2023/01/03 03:46:48;;;;;;;;;;;10.80;99.90;;;;;;5012588;28;20089;-44
2023/01/03 03:49:37;;;;;;;31.17;23.52;;;10.90;99.90;;;;;;5012293;28;19906;-44
2023/01/03 03:52:06;;;;;;;27.08;18.65;;;10.90;99.90;;;;;;5012312;28;20064;-45
2023/01/03 03:54:35;;;;;;;27.17;19.83;;;10.90;99.90;;;;;;5012778;28;20026;-45
2023/01/03 03:57:19;;;;;;;24.33;18.13;;;10.90;99.90;;;;;;4996199;28;20493;-45
2023/01/03 03:59:51;;;;;;;25.80;20.38;;;10.90;99.90;;;;;;5012347;28;20034;-44
2023/01/03 04:02:18;;;;;;;;;;;10.90;99.90;;;;;;5012867;28;20042;-44
2023/01/03 04:04:47;;;;;;;24.77;18.58;;;10.90;99.90;;;;;;5012455;28;19906;-44
2023/01/03 04:07:13;;;;;;;22.98;17.27;;;10.80;99.90;;;;;;5012370;28;20143;-44
2023/01/03 04:09:39;;;;;;;26.00;18.63;;;10.90;99.90;;;;;;5012298;28;20522;-44
2023/01/03 04:12:05;;;;;;;30.45;21.80;;;10.90;99.90;;;;;;5012241;28;20120;-43
2023/01/03 04:14:30;;;;;;;23.15;17.42;;;10.90;99.90;;;;;;4979335;28;20048;-44
2023/01/03 04:16:56;;;;;;;23.65;15.30;;;10.90;99.90;;;;;;4989601;28;20037;-44
2023/01/03 04:19:22;;;;;;;20.98;15.50;;;10.70;99.90;;;;;;5054225;28;20036;-45
2023/01/03 04:21:48;;;;;;;20.10;14.40;;;10.80;99.90;;;;;;5053918;28;20033;-44
2023/01/03 04:24:13;;;;;;;25.60;14.98;;;10.80;99.90;;;;;;5053697;28;20060;-43
2023/01/03 04:26:39;;;;;;;19.50;15.00;;;10.70;99.90;;;;;;5035365;28;20049;-44
2023/01/03 04:29:05;;;;;;;23.75;15.88;;;10.80;99.90;;;;;;5054138;28;20083;-44
2023/01/03 04:31:31;;;;;;;20.02;14.98;;;10.80;99.90;;;;;;5052417;28;20036;-44
2023/01/03 04:33:57;;;;;;;17.88;14.65;;;10.80;99.90;;;;;;5035292;28;20487;-44
2023/01/03 04:36:22;;;;;;;15.82;12.45;;;10.80;99.90;;;;;;5051762;28;20049;-44
2023/01/03 04:38:48;;;;;;;16.55;12.15;;;10.80;99.90;;;;;;5054068;28;20100;-43
2023/01/03 04:41:14;;;;;;;18.48;11.82;;;10.90;99.90;;;;;;5053354;28;20021;-45
2023/01/03 04:46:24;;;;;;;17.52;12.05;;;10.90;99.90;;;;;;5037762;28;20095;-44
2023/01/03 04:48:50;;;;;;;15.90;11.98;;;10.90;99.90;;;;;;5053637;28;20077;-44
2023/01/03 04:51:15;;;;;;;19.25;12.02;;;10.90;99.90;;;;;;5050922;28;20033;-44
2023/01/03 04:53:41;;;;;;;15.70;11.43;;;10.90;99.90;;;;;;5051533;28;20400;-44
2023/01/03 04:56:07;;;;;;;16.75;11.05;;;10.90;99.90;;;;;;5034776;28;20037;-44
2023/01/03 04:58:33;;;;;;;15.35;11.30;;;11.00;99.90;;;;;;5053143;28;20028;-44
2023/01/03 05:01:00;;;;;;;13.55;10.18;;;11.00;99.90;;;;;;5032648;28;20397;-44
2023/01/03 05:03:27;;;;;;;13.77;9.95;;;11.00;99.90;;;;;;5047235;28;20037;-44
2023/01/03 05:05:56;;;;;;;13.65;10.43;;;11.00;99.90;;;;;;5051919;28;20384;-44
2023/01/03 05:08:22;;;;;;;14.00;9.77;;;11.00;99.90;;;;;;5051182;28;20037;-44
2023/01/03 05:10:52;;;;;;;11.40;8.70;;;11.00;99.90;;;;;;5053456;28;20025;-45
2023/01/03 05:13:18;;;;;;;12.43;9.48;;;11.10;99.90;;;;;;5050345;28;20041;-45
2023/01/03 05:15:44;;;;;;;11.20;8.40;;;11.10;99.90;;;;;;5048952;28;20033;-44
2023/01/03 05:18:10;;;;;;;10.00;7.95;;;11.10;99.90;;;;;;5053271;28;20100;-44
2023/01/03 05:26:10;;;;;;;8.63;6.72;;;11.20;99.90;;;;;;5050560;28;20048;-44
2023/01/03 05:28:36;;;;;;;10.18;7.07;;;11.50;99.90;;;;;;5052600;28;20047;-45
2023/01/03 05:31:02;;;;;;;8.40;6.45;;;11.40;99.90;;;;;;5052665;28;20028;-45
2023/01/03 05:33:28;;;;;;;8.88;6.55;;;11.30;99.90;;;;;;5041944;28;20390;-45
2023/01/03 05:35:54;;;;;;;8.90;6.03;;;11.40;99.90;;;;;;5053034;28;20021;-44
2023/01/03 05:38:21;;;;;;;8.75;6.45;;;11.30;99.90;;;;;;5051256;28;20060;-44
2023/01/03 05:40:47;;;;;;;8.18;6.20;;;11.30;99.90;;;;;;5052421;28;20041;-45
2023/01/03 05:43:13;;;;;;;7.63;5.57;;;;;;;;;;5033355;28;20045;-44
2023/01/03 05:45:39;;;;;;;11.93;6.68;;;11.40;99.90;;;;;;5053040;28;20033;-45
2023/01/03 05:48:06;;;;;;;10.45;7.07;;;11.40;99.90;;;;;;5051379;28;20377;-45
2023/01/03 05:50:32;;;;;;;9.98;6.43;;;11.40;99.90;;;;;;5050680;28;20082;-45
2023/01/03 05:52:58;;;;;;;8.30;6.20;;;11.40;99.90;;;;;;5049374;28;20049;-44
2023/01/03 05:55:24;;;;;;;25.63;16.15;;;11.40;99.90;;;;;;5050096;28;20465;-45
2023/01/03 05:57:51;;;;;;;9.93;7.47;;;11.30;99.90;;;;;;5050884;28;21291;-45
2023/01/03 06:00:17;;;;;;;12.30;8.05;;;11.30;99.90;;;;;;5049670;28;20021;-44
2023/01/03 06:02:43;;;;;;;12.90;7.03;;;11.30;99.90;;;;;;5053908;28;20044;-46
2023/01/03 06:05:09;;;;;;;10.35;6.97;;;11.30;99.90;;;;;;5054135;28;20131;-45
2023/01/03 06:07:36;;;;;;;11.18;7.65;;;11.30;99.90;;;;;;5054596;28;20094;-45
2023/01/03 06:10:04;;;;;;;8.25;7.30;;;11.30;99.90;;;;;;5053733;28;20021;-51
2023/01/03 06:12:30;;;;;;;11.00;8.15;;;;;;;;;;5035082;28;20397;-47
2023/01/03 06:14:55;;;;;;;11.50;8.23;;;11.40;99.90;;;;;;5055608;28;20031;-47
2023/01/03 06:20:06;;;;;;;11.63;8.63;;;11.40;99.90;;;;;;5054536;28;20083;-49
2023/01/03 06:22:32;;;;;;;13.85;9.85;;;11.30;99.90;;;;;;5054687;28;20043;-48
2023/01/03 06:24:57;;;;;;;16.73;11.90;;;11.30;99.90;;;;;;5052730;28;20041;-48
2023/01/03 06:27:23;;;;;;;13.32;9.15;;;11.40;99.90;;;;;;5056310;28;20033;-49
2023/01/03 06:29:49;;;;;;;12.68;8.80;;;11.40;99.90;;;;;;5055152;28;20478;-49
2023/01/03 06:32:15;;;;;;;10.85;7.88;;;11.40;99.90;;;;;;5070407;28;20040;-50
2023/01/03 06:34:41;;;;;;;10.73;7.45;;;11.50;99.90;;;;;;5069885;28;20041;-49
2023/01/03 06:37:07;;;;;;;9.63;7.28;;;11.50;99.90;;;;;;5055806;28;20021;-48
2023/01/03 06:39:32;;;;;;;13.13;7.28;;;11.50;99.90;;;;;;5055832;28;20040;-50
2023/01/03 06:42:38;;;;;;;9.80;7.78;;;11.60;99.90;;;;;;5055579;28;20025;-48
2023/01/03 06:53:10;;;;;;;18.80;8.68;;;11.70;99.90;;;;;;5055681;28;20366;-48
2023/01/03 06:53:11;;;;;;;115.53;72.80;;;11.80;99.90;;;;;;5054051;28;20056;-48
2023/01/03 06:55:37;;;;;;;55.03;36.75;;;;;;;;;;5054085;28;20040;-49
2023/01/03 06:58:03;;;;;;;47.50;29.58;;;14.10;99.90;;;;;;5055517;28;20079;-48
2023/01/03 07:00:30;;;;;;;27.15;19.77;;;15.90;99.90;;;;;;5053278;28;20029;-47
2023/01/03 07:02:55;;;;;;;33.58;21.77;;;17.30;99.90;;;;;;5055115;28;20037;-46
2023/01/03 07:05:21;;;;;;;30.02;23.92;;;17.90;99.90;;;;;;5054849;28;20028;-45
2023/01/03 07:07:48;;;;;;;23.40;19.20;;;18.70;99.90;;;;;;5037162;28;20552;-46
2023/01/03 07:10:14;;;;;;;19.70;14.32;;;;;;;;;;5055629;28;20396;-45
2023/01/03 07:15:24;;;;;;;19.65;15.45;;;;;;;;;;5055703;28;20464;-48
2023/01/03 07:17:51;;;;;;;20.63;15.05;;;;;;;;;;5055446;28;20074;-46
2023/01/03 07:20:17;;;;;;;23.50;18.95;;;;;;;;;;5036941;28;20040;-47
2023/01/03 07:22:43;;;;;;;23.35;17.90;;;;;;;;;;5055238;28;20033;-46
2023/01/03 07:25:09;;;;;;;46.47;37.25;;;;;;;;;;5054905;28;20123;-47
2023/01/03 07:27:35;;;;;;;34.95;27.50;;;25.50;94.90;;;;;;5055461;28;20078;-48
2023/01/03 07:30:01;;;;;;;31.23;25.05;;;;;;;;;;5054928;28;20384;-46
2023/01/03 07:32:27;;;;;;;45.55;33.80;;;26.60;92.90;;;;;;5053218;28;20063;-46
2023/01/03 07:34:53;;;;;;;43.33;33.05;;;;;;;;;;5055170;28;20411;-47
2023/01/03 07:37:19;;;;;;;41.25;28.75;;;27.30;91.20;;;;;;5055245;28;20025;-48
2023/01/03 07:39:45;;;;;;;38.63;27.95;;;;;;;;;;5054956;28;20392;-46
2023/01/03 07:44:55;;;;;;;25.60;19.52;;;29.30;86.20;;;;;;5054631;28;20391;-48
2023/01/03 07:47:21;;;;;;;25.55;20.75;;;;;;;;;;5052907;28;20123;-46
2023/01/03 07:49:47;;;;;;;22.10;17.20;;;29.60;84.30;;;;;;5055165;28;20025;-48
2023/01/03 07:52:13;;;;;;;22.23;19.27;;;;;;;;;;5052561;28;20053;-46
2023/01/03 07:54:39;;;;;;;22.02;18.05;;;;;;;;;;5054581;28;20029;-46
2023/01/03 07:57:05;;;;;;;18.73;16.75;;;;;;;;;;5054382;28;20066;-47
2023/01/03 07:59:31;;;;;;;18.80;15.65;;;;;;;;;;5054736;28;20032;-46
2023/01/03 08:01:57;;;;;;;17.52;15.57;;;;;;;;;;5054276;28;20358;-47
2023/01/03 08:04:24;;;;;;;18.45;16.58;;;;;;;;;;5054595;28;20055;-48
2023/01/03 08:06:50;;;;;;;19.83;15.57;;;;;;;;;;5052674;28;20072;-47
2023/01/03 08:14:45;;;;;;;12.07;10.90;;;;;;;;;;5038975;28;20032;-47
2023/01/03 08:17:11;;;;;;;13.82;10.38;;;;;;;;;;5054121;28;20021;-48
2023/01/03 08:19:37;;;;;;;11.48;10.20;;;;;;;;;;5054164;28;20040;-48
2023/01/03 08:22:03;;;;;;;10.02;9.07;;;;;;;;;;5052121;28;20480;-45
2023/01/03 08:24:29;;;;;;;10.07;9.00;;;;;;;;;;5053527;28;20024;-47
2023/01/03 08:26:55;;;;;;;11.95;9.45;;;;;;;;;;5054104;28;20040;-47
2023/01/03 08:29:21;;;;;;;9.65;8.00;;;;;;;;;;5035594;28;20036;-47
2023/01/03 08:31:53;;;;;;;8.73;7.82;;;;;;;;;;5054304;28;20033;-48
2023/01/03 08:34:19;;;;;;;9.80;8.88;;;;;;;;;;5054034;28;20029;-46
2023/01/03 08:36:49;;;;;;;13.57;8.88;;;;;;;;;;5053841;28;20025;-46
2023/01/03 08:39:21;;;;;;;9.60;7.55;;;;;;;;;;5053689;28;20025;-47
2023/01/03 08:41:50;;;;;;;9.02;7.65;;;;;;;;;;5054060;28;20040;-47
2023/01/03 08:44:16;;;;;;;17.65;13.38;;;;;;;;;;5053861;28;20032;-48
2023/01/03 08:46:45;;;;;;;27.30;16.83;;;;;;;;;;5053662;28;20036;-47
2023/01/03 08:49:11;;;;;;;20.25;14.85;;;;;;;;;;5053486;28;20037;-48
2023/01/03 08:51:38;;;;;;;17.30;15.18;;;;;;;;;;5053568;28;20041;-46
2023/01/03 08:54:04;;;;;;;10.25;7.70;;;;;;;;;;5053486;28;20033;-46
2023/01/03 08:56:30;;;;;;;8.98;8.07;;;;;;;;;;5053502;28;20036;-46
2023/01/03 08:58:57;;;;;;;9.48;8.20;;;;;;;;;;5053489;28;20052;-47
2023/01/03 09:01:26;;;;;;;9.07;8.15;;;;;;;;;;5051719;28;20497;-47
2023/01/03 09:03:52;;;;;;;8.50;7.60;;;;;;;;;;5053593;28;20028;-46
2023/01/03 09:06:19;;;;;;;10.27;9.30;;;;;;;;;;5053045;28;20037;-47
2023/01/03 09:08:45;;;;;;;14.55;13.23;;;;;;;;;;5053334;28;20108;-47
2023/01/03 09:11:12;;;;;;;14.68;13.68;;;;;;;;;;5053091;28;20037;-46
2023/01/03 09:13:38;;;;;;;11.65;10.45;;;;;;;;;;5053569;28;20095;-46
2023/01/03 09:16:05;;;;;;;15.68;14.52;;;;;;;;;;5050536;28;20135;-47
2023/01/03 09:18:31;;;;;;;9.05;8.15;;;;;;;;;;5053127;28;20033;-47
2023/01/03 09:20:57;;;;;;;9.38;8.48;;;;;;;;;;5034733;28;20044;-47
2023/01/03 09:23:23;;;;;;;11.20;10.20;;;;;;;;;;5051584;28;20503;-47
2023/01/03 09:25:49;;;;;;;11.40;10.50;;;28.70;77.20;;;;;;5067196;28;20049;-48
2023/01/03 09:28:15;;;;;;;8.45;7.65;;;;;;;;;;5052979;28;20424;-48
2023/01/03 09:30:41;;;;;;;21.95;16.27;;;28.30;79.50;;;;;;5053038;28;20036;-48
2023/01/03 09:33:09;;;;;;;11.88;10.45;;;27.50;79.50;;;;;;5053018;28;20033;-47
2023/01/03 09:35:36;;;;;;;10.68;9.77;;;27.50;79.20;;;;;;5034979;28;20183;-45
2023/01/03 09:38:01;;;;;;;21.27;20.05;;;28.00;79.70;;;;;;5056216;28;20082;-45
2023/01/03 09:40:30;;;;;;;11.18;9.15;;;27.10;79.20;;;;;;5071805;28;20033;-45
2023/01/03 09:43:12;;;;;;;12.73;11.57;;;27.50;80.80;;;;;;5057055;28;20013;-46
2023/01/03 09:45:42;;;;;;;8.75;7.88;;;27.70;80.50;;;;;;5057052;28;20047;-45
2023/01/03 09:48:13;;;;;;;17.45;16.15;;;28.10;80.00;;;;;;5057038;28;20461;-45
2023/01/03 09:50:41;;;;;;;11.07;8.52;;;28.30;79.50;;;;;;5056825;28;20032;-45
2023/01/03 10:04:56;;;;;;;10.15;8.13;;;25.60;80.50;;;;;;5036506;28;20543;-45
2023/01/03 10:07:50;;;;;;;13.52;12.32;;;25.80;82.50;;;;;;5054038;28;20128;-45
2023/01/03 10:10:51;;;;;;;11.90;10.90;;;26.40;82.20;;;;;;5056531;28;20025;-45
2023/01/03 10:13:28;;;;;;;9.98;9.07;;;26.90;82.20;;;;;;5055875;28;20148;-45
2023/01/03 10:16:17;;;;;;;9.48;8.60;;;26.40;84.00;;;;;;5055141;28;20029;-45
2023/01/03 10:18:52;;;;;;;9.02;7.43;;;27.20;85.60;;;;;;5054887;28;20041;-45
2023/01/03 10:21:59;;;;;;;9.60;8.70;;;26.60;84.90;;;;;;5053717;28;20110;-45
2023/01/03 10:24:29;;;;;;;8.45;7.57;;;26.30;82.80;;;;;;5014643;28;20037;-45
2023/01/03 10:27:17;;;;;;;8.30;6.90;;;26.40;81.60;;;;;;5014265;28;20054;-45
2023/01/03 10:29:45;;;;;;;8.25;7.47;;;;;;;;;;5014505;28;20061;-45
2023/01/03 10:32:18;;;;;;;9.35;7.57;;;;;;;;;;4997249;28;20045;-45
2023/01/03 10:35:01;;;;;;;6.40;5.80;;;25.00;92.00;;;;;;4997671;28;20492;-45
2023/01/03 10:37:27;;;;;;;11.43;7.07;;;24.90;82.50;;;;;;5015941;28;20056;-46
2023/01/03 10:40:03;;;;;;;13.25;9.02;;;24.50;84.00;;;;;;4983299;28;20065;-44
2023/01/03 10:42:32;;;;;;;8.27;6.32;;;25.40;84.30;;;;;;4979251;28;20556;-44
2023/01/03 10:45:05;;;;;;;7.82;7.10;;;24.20;84.20;;;;;;5012467;28;20033;-45
2023/01/03 10:47:31;;;;;;;10.75;6.97;;;24.00;85.30;;;;;;4996213;28;20030;-45
2023/01/03 10:50:01;;;;;;;9.95;7.78;;;24.80;86.20;;;;;;4997144;28;20034;-45
2023/01/03 10:52:38;;;;;;;10.50;7.93;;;24.90;84.70;;;;;;5013533;28;20049;-43
2023/01/03 10:55:17;;;;;;;9.80;7.85;;;24.90;84.70;;;;;;5013382;28;20066;-44
2023/01/03 10:57:58;;;;;;;9.68;8.68;;;24.80;84.80;;;;;;5026262;28;20036;-45
2023/01/03 11:00:27;;;;;;;12.32;7.57;;;;;;;;;;5053666;28;20029;-45
2023/01/03 11:02:54;;;;;;;11.98;8.98;;;;;;;;;;5070323;28;20116;-45
2023/01/03 11:05:25;;;;;;;30.52;18.70;;;24.20;86.10;;;;;;5055567;28;20116;-45
2023/01/03 11:07:57;;;;;;;10.20;8.80;;;24.40;87.00;;;;;;5055535;28;20427;-45
2023/01/03 11:10:29;;;;;;;13.18;9.50;;;23.90;87.40;;;;;;5054644;28;20277;-44
2023/01/03 11:12:55;;;;;;;11.90;9.75;;;23.60;88.20;;;;;;5055652;28;20033;-45
2023/01/03 11:15:37;;;;;;;11.30;9.25;;;23.90;87.70;;;;;;5055134;28;20354;-44
2023/01/03 11:18:15;;;;;;;;;;;24.00;95.60;;;;;;5055728;28;20037;-45
2023/01/03 11:20:47;;;;;;;11.25;8.52;;;23.60;96.00;;;;;;5055174;28;19987;-45
2023/01/03 11:23:50;;;;;;;13.27;10.02;;;23.60;99.70;;;;;;5055358;28;20036;-45
2023/01/03 11:26:30;;;;;;;16.02;10.32;;;;;;;;;;5055003;28;20048;-45
2023/01/03 11:29:08;;;;;;;13.40;9.27;;;;;;;;;;5054031;28;20040;-44
2023/01/03 11:31:34;;;;;;;13.10;7.43;;;;;;;;;;5053882;28;20033;-44
2023/01/03 11:34:15;;;;;;;21.63;13.65;;;;;;;;;;5054006;28;20100;-45
2023/01/03 11:36:59;;;;;;;9.40;7.60;;;24.00;99.20;;;;;;5053698;28;20035;-45
2023/01/03 11:39:25;;;;;;;11.70;8.57;;;;;;;;;;5054048;28;20112;-45
2023/01/03 11:42:09;;;;;;;9.38;6.88;;;23.00;87.20;;;;;;5054042;28;20057;-45
2023/01/03 11:44:40;;;;;;;9.93;7.95;;;23.20;87.50;;;;;;5053693;28;20025;-44
2023/01/03 11:47:09;;;;;;;10.25;7.25;;;23.20;88.20;;;;;;5053740;28;20175;-45
2023/01/03 11:49:53;;;;;;;8.30;6.90;;;;;;;;;;5053597;28;20035;-45
2023/01/03 11:52:47;;;;;;;10.30;7.32;;;22.70;88.00;;;;;;5053211;28;20411;-44
2023/01/03 11:55:33;;;;;;;9.75;6.95;;;;;;;;;;5053774;28;20041;-44
2023/01/03 11:58:27;;;;;;;6.95;5.05;;;22.40;88.50;;;;;;5053346;28;20028;-45
2023/01/03 12:00:57;;;;;;;6.45;5.10;;;;;;;;;;5052423;28;20040;-45
2023/01/03 12:03:57;;;;;;;7.60;5.53;;;21.80;89.60;;;;;;5053637;28;20044;-46
2023/01/03 12:06:30;;;;;;;6.78;4.80;;;21.80;89.50;;;;;;5053218;28;20053;-45
2023/01/03 12:09:26;;;;;;;9.90;5.85;;;21.60;90.00;;;;;;5052916;28;20025;-44
2023/01/03 12:12:29;;;;;;;8.95;5.25;;;21.70;90.70;;;;;;5053311;28;20036;-44
2023/01/03 12:15:13;;;;;;;9.80;5.60;;;21.40;90.50;;;;;;5053054;28;20401;-44
2023/01/03 12:17:54;;;;;;;10.52;6.90;;;21.80;91.10;;;;;;5053074;28;20055;-45
2023/01/03 12:20:19;;;;;;;6.72;4.90;;;21.60;90.70;;;;;;5010767;28;20038;-44
2023/01/03 12:22:51;;;;;;;6.97;4.32;;;20.90;91.10;;;;;;4978013;28;20172;-45
2023/01/03 12:25:25;;;;;;;;;;;20.90;91.00;;;;;;5011182;28;20520;-45
2023/01/03 12:28:17;;;;;;;6.50;4.28;;;20.90;91.10;;;;;;5010804;28;19909;-45
2023/01/03 12:30:55;;;;;;;9.07;4.40;;;20.70;90.30;;;;;;5010761;28;20055;-45
2023/01/03 12:33:31;;;;;;;6.15;4.10;;;20.80;91.20;;;;;;5010668;28;20196;-45
2023/01/03 12:36:19;;;;;;;9.32;3.70;;;20.50;91.30;;;;;;4993019;28;20037;-45
2023/01/03 12:39:00;;;;;;;6.28;4.15;;;19.80;91.60;;;;;;5010578;28;20393;-46
2023/01/03 12:41:51;;;;;;;8.30;3.90;;;19.80;94.70;;;;;;5010376;28;20088;-44
2023/01/03 12:44:23;;;;;;;6.82;4.20;;;19.80;93.40;;;;;;5010467;28;20026;-45
2023/01/03 12:46:54;;;;;;;6.55;3.25;;;19.90;94.20;;;;;;5009416;28;20494;-45
2023/01/03 12:49:30;;;;;;;8.52;3.65;;;19.70;92.60;;;;;;4990740;28;20038;-44
2023/01/03 12:51:58;;;;;;;7.25;3.90;;;19.30;92.60;;;;;;5021757;28;20047;-45
2023/01/03 12:54:41;;;;;;;5.72;3.55;;;18.90;92.90;;;;;;5014334;28;20107;-44
2023/01/03 12:57:23;;;;;;;7.63;4.00;;;19.20;95.90;;;;;;5048403;28;20040;-45
2023/01/03 12:59:57;;;;;;;8.50;4.93;;;;;;;;;;5049236;28;20045;-45
2023/01/03 13:02:23;;;;;;;6.35;3.90;;;;;;;;;;5051759;28;20115;-44
2023/01/03 13:04:54;;;;;;;5.65;3.58;;;;;;;;;;5065976;28;20025;-44
2023/01/03 13:07:30;;;;;;;8.27;4.55;;;18.70;97.50;;;;;;5051556;28;20029;-45
2023/01/03 13:10:07;;;;;;;9.45;4.47;;;18.80;96.70;;;;;;5052566;28;20388;-44
2023/01/03 13:12:34;;;;;;;6.68;4.15;;;19.30;95.80;;;;;;5049831;28;20037;-44
2023/01/03 13:15:02;;;;;;;6.45;4.75;;;19.20;96.40;;;;;;5032702;28;20090;-44
2023/01/03 13:17:29;;;;;;;7.65;5.00;;;;;;;;;;5051112;28;20021;-43
2023/01/03 13:20:13;;;;;;;6.75;5.10;;;19.20;99.90;;;;;;5051702;28;20033;-44
2023/01/03 13:22:54;;;;;;;7.53;4.75;;;19.60;98.30;;;;;;5052063;28;20061;-44
2023/01/03 13:25:38;;;;;;;9.48;5.47;;;19.50;97.90;;;;;;5033038;28;20040;-44
2023/01/03 13:28:08;;;;;;;9.95;4.55;;;;;;;;;;5052161;28;20040;-44
2023/01/03 13:30:37;;;;;;;6.25;5.43;;;18.90;93.60;;;;;;5052271;28;20037;-44
2023/01/03 13:33:16;;;;;;;10.60;5.53;;;19.10;93.60;;;;;;5051813;28;20037;-44
2023/01/03 13:35:45;;;;;;;7.00;4.07;;;19.70;97.10;;;;;;5052046;28;20049;-44
2023/01/03 13:38:25;;;;;;;11.07;4.85;;;19.30;93.40;;;;;;5052067;28;20457;-44
2023/01/03 13:41:00;;;;;;;9.15;4.82;;;19.30;93.70;;;;;;5051909;28;20424;-45
2023/01/03 13:43:34;;;;;;;8.32;5.20;;;19.50;93.90;;;;;;5052056;28;20583;-44
2023/01/03 13:46:18;;;;;;;7.32;4.57;;;19.10;96.40;;;;;;5052762;28;20051;-45
2023/01/03 13:49:01;;;;;;;12.93;5.60;;;19.00;99.90;;;;;;5052829;28;20141;-44
2023/01/03 13:51:38;;;;;;;10.57;4.50;;;18.70;99.90;;;;;;5052631;28;20060;-44
2023/01/03 13:54:07;;;;;;;7.25;4.82;;;18.50;95.40;;;;;;5052649;28;20040;-44
2023/01/03 13:56:42;;;;;;;5.70;4.35;;;18.50;94.90;;;;;;5052877;28;20048;-44
2023/01/03 13:59:14;;;;;;;8.20;4.72;;;19.00;97.60;;;;;;5052508;28;20041;-44
2023/01/03 14:01:54;;;;;;;12.32;5.72;;;18.60;98.60;;;;;;5050735;28;20048;-44
2023/01/03 14:04:23;;;;;;;10.07;6.97;;;;;;;;;;5052516;28;20036;-44
2023/01/03 14:07:15;;;;;;;17.70;7.82;;;17.70;99.90;;;;;;5052501;28;20045;-45
2023/01/03 14:10:15;;;;;;;10.55;8.05;;;17.80;97.80;;;;;;5021990;28;20045;-45
2023/01/03 14:12:53;;;;;;;11.45;6.43;;;17.20;98.60;;;;;;4971922;28;20155;-44
2023/01/03 14:15:24;;;;;;;9.63;7.65;;;17.00;99.40;;;;;;4971740;28;20045;-44
2023/01/03 14:18:19;;;;;;;10.77;6.97;;;16.80;99.90;;;;;;4971853;28;20043;-44
2023/01/03 14:20:49;;;;;;;9.52;6.43;;;16.80;99.90;;;;;;4914418;29;20127;-44
2023/01/03 14:23:16;;;;;;;14.90;10.38;;;16.60;99.90;;;;;;4915884;29;20115;-44
2023/01/03 14:25:44;;;;;;;12.95;9.82;;;16.80;99.90;;;;;;4917863;29;20140;-44